sensor_id;sensor_type;location;lat;lon;timestamp;pressure;altitude;pressure_sealevel;temperature;humidity
79463;BME280;68931;47.286;18.756;2023-03-31T00:00:25;100308.84;;;23.19;35.04
79463;BME280;68931;47.286;18.756;2023-03-31T00:00:56;100312.38;;;23.19;34.55
79463;BME280;68931;47.286;18.756;2023-03-31T00:01:28;100306.34;;;23.17;34.88
79463;BME280;68931;47.286;18.756;2023-03-31T00:02:00;100309.69;;;23.19;34.71
79463;BME280;68931;47.286;18.756;2023-03-31T00:02:31;100307.19;;;23.18;34.84
79463;BME280;68931;47.286;18.756;2023-03-31T00:03:02;100311.88;;;23.16;34.87
79463;BME280;68931;47.286;18.756;2023-03-31T00:03:39;100310.84;;;23.17;34.17
79463;BME280;68931;47.286;18.756;2023-03-31T00:04:12;100312.53;;;23.18;34.54
79463;BME280;68931;47.286;18.756;2023-03-31T00:04:43;100315.88;;;23.20;34.42
79463;BME280;68931;47.286;18.756;2023-03-31T00:05:21;100313.38;;;23.18;34.48
79463;BME280;68931;47.286;18.756;2023-03-31T00:05:58;100312.38;;;23.19;34.66
79463;BME280;68931;47.286;18.756;2023-03-31T00:06:35;100312.38;;;23.19;34.51
79463;BME280;68931;47.286;18.756;2023-03-31T00:07:07;100307.84;;;23.20;34.56
79463;BME280;68931;47.286;18.756;2023-03-31T00:07:38;100308.69;;;23.20;34.76
79463;BME280;68931;47.286;18.756;2023-03-31T00:08:09;100311.34;;;23.20;34.24
79463;BME280;68931;47.286;18.756;2023-03-31T00:08:43;100311.53;;;23.19;34.37
79463;BME280;68931;47.286;18.756;2023-03-31T00:09:15;100306.00;;;23.20;34.04
79463;BME280;68931;47.286;18.756;2023-03-31T00:09:48;100299.97;;;23.18;34.13
79463;BME280;68931;47.286;18.756;2023-03-31T00:10:18;100304.66;;;23.16;34.35
79463;BME280;68931;47.286;18.756;2023-03-31T00:10:49;100301.31;;;23.14;34.32
79463;BME280;68931;47.286;18.756;2023-03-31T00:11:21;100302.16;;;23.15;34.30
79463;BME280;68931;47.286;18.756;2023-03-31T00:11:51;100305.84;;;23.14;34.28
79463;BME280;68931;47.286;18.756;2023-03-31T00:12:22;100304.00;;;23.14;34.44
79463;BME280;68931;47.286;18.756;2023-03-31T00:12:53;100308.53;;;23.14;34.28
79463;BME280;68931;47.286;18.756;2023-03-31T00:13:24;100309.34;;;23.14;34.13
79463;BME280;68931;47.286;18.756;2023-03-31T00:13:54;100305.69;;;23.15;34.70
79463;BME280;68931;47.286;18.756;2023-03-31T00:14:25;100308.72;;;23.12;34.53
79463;BME280;68931;47.286;18.756;2023-03-31T00:14:56;100307.69;;;23.13;34.54
79463;BME280;68931;47.286;18.756;2023-03-31T00:15:27;100303.38;;;23.12;34.33
79463;BME280;68931;47.286;18.756;2023-03-31T00:16:08;100301.53;;;23.13;34.60
79463;BME280;68931;47.286;18.756;2023-03-31T00:16:39;100300.69;;;23.12;34.59
79463;BME280;68931;47.286;18.756;2023-03-31T00:17:10;100305.84;;;23.14;34.54
79463;BME280;68931;47.286;18.756;2023-03-31T00:17:41;100306.22;;;23.11;34.59
79463;BME280;68931;47.286;18.756;2023-03-31T00:18:13;100306.22;;;23.11;34.60
79463;BME280;68931;47.286;18.756;2023-03-31T00:18:44;100306.38;;;23.09;34.32
79463;BME280;68931;47.286;18.756;2023-03-31T00:19:16;100302.03;;;23.08;34.62
79463;BME280;68931;47.286;18.756;2023-03-31T00:19:47;100310.06;;;23.08;34.81
79463;BME280;68931;47.286;18.756;2023-03-31T00:20:19;100302.69;;;23.10;34.44
79463;BME280;68931;47.286;18.756;2023-03-31T00:20:51;100302.88;;;23.09;34.70
79463;BME280;68931;47.286;18.756;2023-03-31T00:21:23;100301.19;;;23.08;34.24
79463;BME280;68931;47.286;18.756;2023-03-31T00:21:54;100305.72;;;23.07;34.51
79463;BME280;68931;47.286;18.756;2023-03-31T00:22:25;100301.38;;;23.06;34.58
79463;BME280;68931;47.286;18.756;2023-03-31T00:22:56;100288.97;;;23.05;34.32
79463;BME280;68931;47.286;18.756;2023-03-31T00:23:28;100304.03;;;23.06;34.16
79463;BME280;68931;47.286;18.756;2023-03-31T00:24:08;100305.88;;;23.06;33.94
79463;BME280;68931;47.286;18.756;2023-03-31T00:24:39;100298.69;;;23.06;34.08
79463;BME280;68931;47.286;18.756;2023-03-31T00:25:09;100299.69;;;23.05;33.93
79463;BME280;68931;47.286;18.756;2023-03-31T00:25:40;100298.84;;;23.05;34.47
79463;BME280;68931;47.286;18.756;2023-03-31T00:26:11;100292.69;;;23.04;34.12
79463;BME280;68931;47.286;18.756;2023-03-31T00:26:42;100292.69;;;23.04;34.29
79463;BME280;68931;47.286;18.756;2023-03-31T00:27:13;100298.06;;;23.04;34.27
79463;BME280;68931;47.286;18.756;2023-03-31T00:27:44;100303.41;;;23.04;34.50
79463;BME280;68931;47.286;18.756;2023-03-31T00:28:15;100297.38;;;23.02;34.29
79463;BME280;68931;47.286;18.756;2023-03-31T00:28:45;100298.38;;;23.01;34.44
79463;BME280;68931;47.286;18.756;2023-03-31T00:29:16;100295.88;;;23.00;34.12
79463;BME280;68931;47.286;18.756;2023-03-31T00:29:47;100295.03;;;22.99;34.40
79463;BME280;68931;47.286;18.756;2023-03-31T00:30:19;100295.03;;;22.99;34.38
79463;BME280;68931;47.286;18.756;2023-03-31T00:30:50;100287.19;;;22.98;34.55
79463;BME280;68931;47.286;18.756;2023-03-31T00:31:22;100289.03;;;22.97;34.32
79463;BME280;68931;47.286;18.756;2023-03-31T00:31:54;100284.66;;;22.96;34.23
79463;BME280;68931;47.286;18.756;2023-03-31T00:32:25;100291.69;;;22.97;34.12
79463;BME280;68931;47.286;18.756;2023-03-31T00:32:55;100287.34;;;22.96;34.13
79463;BME280;68931;47.286;18.756;2023-03-31T00:33:26;100281.34;;;22.94;34.44
79463;BME280;68931;47.286;18.756;2023-03-31T00:33:57;100284.03;;;22.94;34.23
79463;BME280;68931;47.286;18.756;2023-03-31T00:34:28;100283.19;;;22.94;34.26
79463;BME280;68931;47.286;18.756;2023-03-31T00:34:59;100287.72;;;22.93;34.44
79463;BME280;68931;47.286;18.756;2023-03-31T00:35:34;100277.00;;;22.93;34.29
79463;BME280;68931;47.286;18.756;2023-03-31T00:36:05;100281.53;;;22.93;34.43
79463;BME280;68931;47.286;18.756;2023-03-31T00:36:36;100280.84;;;22.91;34.52
79463;BME280;68931;47.286;18.756;2023-03-31T00:37:16;100282.69;;;22.90;34.56
79463;BME280;68931;47.286;18.756;2023-03-31T00:37:47;100278.19;;;22.91;34.60
79463;BME280;68931;47.286;18.756;2023-03-31T00:38:17;100284.69;;;22.88;34.24
79463;BME280;68931;47.286;18.756;2023-03-31T00:38:51;100286.38;;;22.89;34.27
79463;BME280;68931;47.286;18.756;2023-03-31T00:39:23;100283.69;;;22.89;34.17
79463;BME280;68931;47.286;18.756;2023-03-31T00:39:58;100282.03;;;22.88;34.39
79463;BME280;68931;47.286;18.756;2023-03-31T00:40:29;100281.19;;;22.87;34.35
79463;BME280;68931;47.286;18.756;2023-03-31T00:41:01;100282.22;;;22.86;34.50
79463;BME280;68931;47.286;18.756;2023-03-31T00:41:32;100279.56;;;22.86;34.27
79463;BME280;68931;47.286;18.756;2023-03-31T00:42:03;100291.06;;;22.87;34.49
79463;BME280;68931;47.286;18.756;2023-03-31T00:42:43;100288.59;;;22.85;34.63
79463;BME280;68931;47.286;18.756;2023-03-31T00:43:28;100284.41;;;22.83;34.54
79463;BME280;68931;47.286;18.756;2023-03-31T00:44:10;100281.72;;;22.83;34.32
79463;BME280;68931;47.286;18.756;2023-03-31T00:45:44;100281.06;;;22.81;34.45
79463;BME280;68931;47.286;18.756;2023-03-31T00:46:19;100282.72;;;22.82;34.22
79463;BME280;68931;47.286;18.756;2023-03-31T00:47:33;100278.75;;;22.78;34.51
79463;BME280;68931;47.286;18.756;2023-03-31T00:48:15;100282.22;;;22.78;34.51
79463;BME280;68931;47.286;18.756;2023-03-31T00:48:50;100282.22;;;22.78;34.34
79463;BME280;68931;47.286;18.756;2023-03-31T00:49:46;100282.41;;;22.77;34.38
79463;BME280;68931;47.286;18.756;2023-03-31T00:50:31;100283.44;;;22.76;34.57
79463;BME280;68931;47.286;18.756;2023-03-31T00:51:06;100284.25;;;22.76;34.63
79463;BME280;68931;47.286;18.756;2023-03-31T00:51:37;100280.59;;;22.77;34.38
79463;BME280;68931;47.286;18.756;2023-03-31T00:52:30;100286.94;;;22.76;34.58
79463;BME280;68931;47.286;18.756;2023-03-31T00:53:09;100283.44;;;22.76;34.32
79463;BME280;68931;47.286;18.756;2023-03-31T00:53:41;100276.41;;;22.75;34.57
79463;BME280;68931;47.286;18.756;2023-03-31T00:54:12;100280.03;;;22.74;34.92
79463;BME280;68931;47.286;18.756;2023-03-31T00:54:47;100286.41;;;22.73;34.68
79463;BME280;68931;47.286;18.756;2023-03-31T00:55:23;100286.41;;;22.73;34.80
79463;BME280;68931;47.286;18.756;2023-03-31T00:55:59;100287.22;;;22.73;34.68
79463;BME280;68931;47.286;18.756;2023-03-31T00:56:36;100285.56;;;22.72;34.57
79463;BME280;68931;47.286;18.756;2023-03-31T00:57:10;100281.22;;;22.71;34.73
79463;BME280;68931;47.286;18.756;2023-03-31T00:57:44;100283.88;;;22.71;34.13
79463;BME280;68931;47.286;18.756;2023-03-31T00:58:19;100281.38;;;22.70;34.91
79463;BME280;68931;47.286;18.756;2023-03-31T00:58:52;100281.38;;;22.70;34.61
79463;BME280;68931;47.286;18.756;2023-03-31T00:59:30;100283.22;;;22.69;34.50
79463;BME280;68931;47.286;18.756;2023-03-31T01:00:07;100280.75;;;22.68;34.31
79463;BME280;68931;47.286;18.756;2023-03-31T01:00:46;100285.25;;;22.67;34.25
79463;BME280;68931;47.286;18.756;2023-03-31T01:01:21;100284.25;;;22.68;34.58
79463;BME280;68931;47.286;18.756;2023-03-31T01:01:55;100273.72;;;22.67;34.66
79463;BME280;68931;47.286;18.756;2023-03-31T01:02:28;100278.22;;;22.66;34.61
79463;BME280;68931;47.286;18.756;2023-03-31T01:03:02;100280.75;;;22.68;34.55
79463;BME280;68931;47.286;18.756;2023-03-31T01:03:36;100278.22;;;22.66;34.41
79463;BME280;68931;47.286;18.756;2023-03-31T01:04:08;100281.91;;;22.65;34.85
79463;BME280;68931;47.286;18.756;2023-03-31T01:04:54;100283.59;;;22.66;34.55
79463;BME280;68931;47.286;18.756;2023-03-31T01:05:33;100277.41;;;22.66;34.70
79463;BME280;68931;47.286;18.756;2023-03-31T01:06:07;100277.41;;;22.66;34.54
79463;BME280;68931;47.286;18.756;2023-03-31T01:06:49;100287.75;;;22.69;34.80
79463;BME280;68931;47.286;18.756;2023-03-31T01:07:33;100277.88;;;22.69;34.54
79463;BME280;68931;47.286;18.756;2023-03-31T01:08:08;100281.75;;;22.67;34.64
79463;BME280;68931;47.286;18.756;2023-03-31T01:08:40;100279.91;;;22.67;34.87
79463;BME280;68931;47.286;18.756;2023-03-31T01:09:12;100280.75;;;22.68;34.82
79463;BME280;68931;47.286;18.756;2023-03-31T01:09:47;100277.06;;;22.69;34.73
79463;BME280;68931;47.286;18.756;2023-03-31T01:10:18;100280.38;;;22.71;34.45
79463;BME280;68931;47.286;18.756;2023-03-31T01:11:09;100276.69;;;22.72;34.98
79463;BME280;68931;47.286;18.756;2023-03-31T01:11:43;100286.56;;;22.71;34.70
79463;BME280;68931;47.286;18.756;2023-03-31T01:12:17;100271.34;;;22.72;34.62
79463;BME280;68931;47.286;18.756;2023-03-31T01:12:51;100276.69;;;22.72;34.47
79463;BME280;68931;47.286;18.756;2023-03-31T01:13:24;100273.88;;;22.73;34.61
79463;BME280;68931;47.286;18.756;2023-03-31T01:13:56;100273.19;;;22.71;34.99
79463;BME280;68931;47.286;18.756;2023-03-31T01:14:29;100278.25;;;22.74;34.51
79463;BME280;68931;47.286;18.756;2023-03-31T01:15:02;100276.41;;;22.75;34.70
79463;BME280;68931;47.286;18.756;2023-03-31T01:15:33;100275.22;;;22.77;34.67
79463;BME280;68931;47.286;18.756;2023-03-31T01:16:04;100271.72;;;22.77;34.48
79463;BME280;68931;47.286;18.756;2023-03-31T01:16:35;100273.41;;;22.78;34.83
79463;BME280;68931;47.286;18.756;2023-03-31T01:17:09;100275.88;;;22.79;34.61
79463;BME280;68931;47.286;18.756;2023-03-31T01:17:41;100266.84;;;22.80;34.92
79463;BME280;68931;47.286;18.756;2023-03-31T01:18:15;100274.69;;;22.82;34.43
79463;BME280;68931;47.286;18.756;2023-03-31T01:18:50;100273.03;;;22.81;34.56
79463;BME280;68931;47.286;18.756;2023-03-31T01:24:44;100272.50;;;22.94;34.47
79463;BME280;68931;47.286;18.756;2023-03-31T01:27:07;100276.31;;;22.99;34.40
79463;BME280;68931;47.286;18.756;2023-03-31T01:27:58;100273.63;;;22.99;34.46
79463;BME280;68931;47.286;18.756;2023-03-31T01:29:03;100274.47;;;23.00;34.37
79463;BME280;68931;47.286;18.756;2023-03-31T01:31:05;100260.59;;;23.04;34.37
79463;BME280;68931;47.286;18.756;2023-03-31T01:36:23;100263.72;;;23.08;34.08
79463;BME280;68931;47.286;18.756;2023-03-31T01:38:47;100267.22;;;23.08;34.24
79463;BME280;68931;47.286;18.756;2023-03-31T01:40:33;100274.25;;;23.09;34.09
79463;BME280;68931;47.286;18.756;2023-03-31T01:41:33;100270.91;;;23.07;34.25
79463;BME280;68931;47.286;18.756;2023-03-31T01:42:32;100266.22;;;23.09;33.89
79463;BME280;68931;47.286;18.756;2023-03-31T01:43:20;100275.44;;;23.07;34.57
79463;BME280;68931;47.286;18.756;2023-03-31T01:44:37;100270.09;;;23.07;34.22
79463;BME280;68931;47.286;18.756;2023-03-31T01:46:36;100275.44;;;23.07;34.08
79463;BME280;68931;47.286;18.756;2023-03-31T01:47:19;100273.75;;;23.06;34.19
79463;BME280;68931;47.286;18.756;2023-03-31T01:48:07;100272.09;;;23.05;34.68
79463;BME280;68931;47.286;18.756;2023-03-31T01:49:49;100279.31;;;23.04;34.04
79463;BME280;68931;47.286;18.756;2023-03-31T01:50:32;100282.00;;;23.04;34.01
79463;BME280;68931;47.286;18.756;2023-03-31T01:52:24;100272.09;;;23.05;34.06
79463;BME280;68931;47.286;18.756;2023-03-31T01:55:22;100278.47;;;23.04;33.99
79463;BME280;68931;47.286;18.756;2023-03-31T01:56:56;100278.66;;;23.02;33.93
79463;BME280;68931;47.286;18.756;2023-03-31T01:57:35;100274.28;;;23.01;34.03
79463;BME280;68931;47.286;18.756;2023-03-31T01:58:19;100279.66;;;23.01;33.86
79463;BME280;68931;47.286;18.756;2023-03-31T01:58:59;100271.78;;;23.00;33.93
79463;BME280;68931;47.286;18.756;2023-03-31T02:00:28;100271.97;;;22.98;33.99
79463;BME280;68931;47.286;18.756;2023-03-31T02:01:14;100265.78;;;22.98;34.05
79463;BME280;68931;47.286;18.756;2023-03-31T02:01:51;100272.13;;;22.97;33.96
79463;BME280;68931;47.286;18.756;2023-03-31T02:02:30;100264.94;;;22.97;33.95
79463;BME280;68931;47.286;18.756;2023-03-31T02:03:08;100267.78;;;22.96;33.88
79463;BME280;68931;47.286;18.756;2023-03-31T02:03:52;100265.94;;;22.96;33.91
79463;BME280;68931;47.286;18.756;2023-03-31T02:04:35;100269.66;;;22.95;34.03
79463;BME280;68931;47.286;18.756;2023-03-31T02:05:12;100264.63;;;22.92;33.93
79463;BME280;68931;47.286;18.756;2023-03-31T02:05:52;100261.97;;;22.92;33.93
79463;BME280;68931;47.286;18.756;2023-03-31T02:06:29;100266.47;;;22.92;33.70
79463;BME280;68931;47.286;18.756;2023-03-31T02:07:13;100274.66;;;22.90;34.05
79463;BME280;68931;47.286;18.756;2023-03-31T02:07:54;100270.31;;;22.89;33.93
79463;BME280;68931;47.286;18.756;2023-03-31T02:08:36;100266.81;;;22.88;34.33
79463;BME280;68931;47.286;18.756;2023-03-31T02:09:15;100261.47;;;22.88;34.15
79463;BME280;68931;47.286;18.756;2023-03-31T02:09:49;100271.31;;;22.88;33.83
79463;BME280;68931;47.286;18.756;2023-03-31T02:10:24;100270.69;;;22.86;33.99
79463;BME280;68931;47.286;18.756;2023-03-31T02:10:58;100268.19;;;22.84;34.24
79463;BME280;68931;47.286;18.756;2023-03-31T02:11:31;100267.69;;;22.81;34.20
79463;BME280;68931;47.286;18.756;2023-03-31T02:12:08;100264.00;;;22.82;33.87
79463;BME280;68931;47.286;18.756;2023-03-31T02:12:42;100264.84;;;22.82;33.92
79463;BME280;68931;47.286;18.756;2023-03-31T02:13:16;100262.31;;;22.81;33.93
79463;BME280;68931;47.286;18.756;2023-03-31T02:13:52;100259.66;;;22.81;34.42
79463;BME280;68931;47.286;18.756;2023-03-31T02:14:27;100264.16;;;22.80;33.95
79463;BME280;68931;47.286;18.756;2023-03-31T02:15:04;100257.16;;;22.79;33.98
79463;BME280;68931;47.286;18.756;2023-03-31T02:15:43;100259.81;;;22.79;34.25
79463;BME280;68931;47.286;18.756;2023-03-31T02:16:22;100258.34;;;22.77;34.20
79463;BME280;68931;47.286;18.756;2023-03-31T02:16:57;100258.34;;;22.77;34.06
79463;BME280;68931;47.286;18.756;2023-03-31T02:17:28;100254.84;;;22.76;34.31
79463;BME280;68931;47.286;18.756;2023-03-31T02:18:30;100256.66;;;22.76;34.10
79463;BME280;68931;47.286;18.756;2023-03-31T02:19:04;100256.66;;;22.76;33.88
79463;BME280;68931;47.286;18.756;2023-03-31T02:19:40;100256.66;;;22.76;34.07
79463;BME280;68931;47.286;18.756;2023-03-31T02:20:14;100253.28;;;22.74;33.84
79463;BME280;68931;47.286;18.756;2023-03-31T02:20:50;100259.50;;;22.74;34.10
79463;BME280;68931;47.286;18.756;2023-03-31T02:21:23;100259.66;;;22.73;34.22
79463;BME280;68931;47.286;18.756;2023-03-31T02:21:54;100256.97;;;22.73;34.12
79463;BME280;68931;47.286;18.756;2023-03-31T02:22:29;100256.31;;;22.71;34.28
79463;BME280;68931;47.286;18.756;2023-03-31T02:23:01;100262.50;;;22.71;34.06
79463;BME280;68931;47.286;18.756;2023-03-31T02:23:35;100260.19;;;22.68;34.11
79463;BME280;68931;47.286;18.756;2023-03-31T02:24:11;100260.19;;;22.68;34.18
79463;BME280;68931;47.286;18.756;2023-03-31T02:24:46;100261.03;;;22.69;34.10
79463;BME280;68931;47.286;18.756;2023-03-31T02:25:21;100259.34;;;22.68;33.96
79463;BME280;68931;47.286;18.756;2023-03-31T02:26:03;100255.16;;;22.65;34.14
79463;BME280;68931;47.286;18.756;2023-03-31T02:26:41;100250.66;;;22.66;34.27
79463;BME280;68931;47.286;18.756;2023-03-31T02:27:24;100252.50;;;22.65;34.23
79463;BME280;68931;47.286;18.756;2023-03-31T02:27:59;100250.81;;;22.64;34.09
79463;BME280;68931;47.286;18.756;2023-03-31T02:28:32;100254.31;;;22.65;34.47
79463;BME280;68931;47.286;18.756;2023-03-31T02:29:03;100257.00;;;22.65;34.08
79463;BME280;68931;47.286;18.756;2023-03-31T02:29:34;100252.66;;;22.64;34.12
79463;BME280;68931;47.286;18.756;2023-03-31T02:30:06;100252.66;;;22.64;33.88
79463;BME280;68931;47.286;18.756;2023-03-31T02:31:45;100249.31;;;22.62;34.50
79463;BME280;68931;47.286;18.756;2023-03-31T02:32:37;100250.16;;;22.62;34.10
79463;BME280;68931;47.286;18.756;2023-03-31T02:33:08;100250.31;;;22.61;34.29
79463;BME280;68931;47.286;18.756;2023-03-31T02:33:38;100247.63;;;22.61;34.58
79463;BME280;68931;47.286;18.756;2023-03-31T02:34:09;100251.97;;;22.62;34.26
79463;BME280;68931;47.286;18.756;2023-03-31T02:34:40;100248.66;;;22.60;34.39
79463;BME280;68931;47.286;18.756;2023-03-31T02:35:17;100250.50;;;22.59;34.13
79463;BME280;68931;47.286;18.756;2023-03-31T02:35:49;100251.34;;;22.60;34.15
79463;BME280;68931;47.286;18.756;2023-03-31T02:36:21;100250.50;;;22.59;34.27
79463;BME280;68931;47.286;18.756;2023-03-31T02:36:53;100252.34;;;22.59;34.61
79463;BME280;68931;47.286;18.756;2023-03-31T02:37:25;100248.66;;;22.60;34.32
79463;BME280;68931;47.286;18.756;2023-03-31T02:37:57;100246.84;;;22.60;34.30
79463;BME280;68931;47.286;18.756;2023-03-31T02:38:43;100247.63;;;22.61;33.99
79463;BME280;68931;47.286;18.756;2023-03-31T02:39:20;100250.16;;;22.62;34.05
79463;BME280;68931;47.286;18.756;2023-03-31T02:39:55;100246.63;;;22.62;34.20
79463;BME280;68931;47.286;18.756;2023-03-31T02:40:26;100244.63;;;22.64;34.21
79463;BME280;68931;47.286;18.756;2023-03-31T02:40:58;100248.97;;;22.65;34.41
79463;BME280;68931;47.286;18.756;2023-03-31T02:41:29;100245.47;;;22.64;33.93
79463;BME280;68931;47.286;18.756;2023-03-31T02:42:00;100250.66;;;22.66;34.38
79463;BME280;68931;47.286;18.756;2023-03-31T02:42:38;100248.66;;;22.68;34.54
79463;BME280;68931;47.286;18.756;2023-03-31T02:43:09;100245.97;;;22.68;34.33
79463;BME280;68931;47.286;18.756;2023-03-31T02:43:40;100243.28;;;22.68;34.19
79463;BME280;68931;47.286;18.756;2023-03-31T02:44:11;100244.97;;;22.69;34.07
79463;BME280;68931;47.286;18.756;2023-03-31T02:44:42;100247.28;;;22.72;34.42
79463;BME280;68931;47.286;18.756;2023-03-31T02:45:42;100246.28;;;22.73;34.18
79463;BME280;68931;47.286;18.756;2023-03-31T02:46:13;100239.25;;;22.72;34.10
79463;BME280;68931;47.286;18.756;2023-03-31T02:46:44;100244.31;;;22.75;34.16
79463;BME280;68931;47.286;18.756;2023-03-31T02:47:18;100245.13;;;22.75;34.34
79463;BME280;68931;47.286;18.756;2023-03-31T02:47:49;100241.47;;;22.76;34.07
79463;BME280;68931;47.286;18.756;2023-03-31T02:48:25;100244.97;;;22.77;34.12
79463;BME280;68931;47.286;18.756;2023-03-31T02:49:00;100244.59;;;22.80;34.20
79463;BME280;68931;47.286;18.756;2023-03-31T02:49:33;100243.97;;;22.78;34.38
79463;BME280;68931;47.286;18.756;2023-03-31T02:50:05;100247.28;;;22.80;34.34
79463;BME280;68931;47.286;18.756;2023-03-31T02:53:05;100254.81;;;22.84;34.27
79463;BME280;68931;47.286;18.756;2023-03-31T02:54:03;100250.13;;;22.86;34.04
79463;BME280;68931;47.286;18.756;2023-03-31T02:55:14;100248.91;;;22.89;34.18
79463;BME280;68931;47.286;18.756;2023-03-31T03:00:54;100241.50;;;22.99;34.18
79463;BME280;68931;47.286;18.756;2023-03-31T03:07:07;100247.66;;;23.08;33.67
79463;BME280;68931;47.286;18.756;2023-03-31T03:07:58;100251.19;;;23.08;33.94
79463;BME280;68931;47.286;18.756;2023-03-31T03:11:26;100247.66;;;23.08;33.65
79463;BME280;68931;47.286;18.756;2023-03-31T03:12:12;100253.84;;;23.08;33.54
79463;BME280;68931;47.286;18.756;2023-03-31T03:13:16;100248.66;;;23.07;33.68
79463;BME280;68931;47.286;18.756;2023-03-31T03:14:27;100250.50;;;23.06;33.84
79463;BME280;68931;47.286;18.756;2023-03-31T03:15:12;100247.84;;;23.06;33.71
79463;BME280;68931;47.286;18.756;2023-03-31T03:15:52;100252.34;;;23.06;33.83
79463;BME280;68931;47.286;18.756;2023-03-31T03:16:48;100245.16;;;23.06;33.78
79463;BME280;68931;47.286;18.756;2023-03-31T03:17:31;100244.31;;;23.06;33.27
79463;BME280;68931;47.286;18.756;2023-03-31T03:18:04;100246.16;;;23.05;33.89
79463;BME280;68931;47.286;18.756;2023-03-31T03:18:36;100247.84;;;23.06;33.57
79463;BME280;68931;47.286;18.756;2023-03-31T03:19:07;100253.03;;;23.08;33.56
79463;BME280;68931;47.286;18.756;2023-03-31T03:19:40;100251.50;;;23.05;33.78
79463;BME280;68931;47.286;18.756;2023-03-31T03:20:12;100244.16;;;23.07;33.74
79463;BME280;68931;47.286;18.756;2023-03-31T03:20:43;100253.19;;;23.06;33.80
79463;BME280;68931;47.286;18.756;2023-03-31T03:21:20;100251.50;;;23.05;33.61
79463;BME280;68931;47.286;18.756;2023-03-31T03:21:51;100252.56;;;23.04;33.63
79463;BME280;68931;47.286;18.756;2023-03-31T03:22:22;100249.03;;;23.04;33.97
79463;BME280;68931;47.286;18.756;2023-03-31T03:22:52;100256.03;;;23.05;33.72
79463;BME280;68931;47.286;18.756;2023-03-31T03:23:23;100248.00;;;23.05;33.76
79463;BME280;68931;47.286;18.756;2023-03-31T03:23:54;100249.88;;;23.04;33.64
79463;BME280;68931;47.286;18.756;2023-03-31T03:24:24;100251.88;;;23.02;33.81
79463;BME280;68931;47.286;18.756;2023-03-31T03:24:58;100248.38;;;23.02;33.64
79463;BME280;68931;47.286;18.756;2023-03-31T03:25:30;100247.38;;;23.03;33.69
79463;BME280;68931;47.286;18.756;2023-03-31T03:26:00;100244.84;;;23.01;33.54
79463;BME280;68931;47.286;18.756;2023-03-31T03:26:31;100248.53;;;23.00;33.67
79463;BME280;68931;47.286;18.756;2023-03-31T03:27:04;100242.34;;;23.00;33.50
79463;BME280;68931;47.286;18.756;2023-03-31T03:27:36;100249.38;;;23.01;33.74
79463;BME280;68931;47.286;18.756;2023-03-31T03:28:07;100245.03;;;23.00;33.39
79463;BME280;68931;47.286;18.756;2023-03-31T03:28:37;100241.50;;;22.99;33.79
79463;BME280;68931;47.286;18.756;2023-03-31T03:29:08;100240.50;;;23.00;33.38
79463;BME280;68931;47.286;18.756;2023-03-31T03:29:39;100247.88;;;22.98;33.79
79463;BME280;68931;47.286;18.756;2023-03-31T03:30:12;100245.38;;;22.97;33.32
79463;BME280;68931;47.286;18.756;2023-03-31T03:30:49;100238.84;;;22.99;33.87
79463;BME280;68931;47.286;18.756;2023-03-31T03:31:21;100244.19;;;22.99;33.37
79463;BME280;68931;47.286;18.756;2023-03-31T03:31:53;100239.84;;;22.98;33.57
79463;BME280;68931;47.286;18.756;2023-03-31T03:32:23;100239.00;;;22.98;33.54
79463;BME280;68931;47.286;18.756;2023-03-31T03:32:55;100241.84;;;22.96;33.85
79463;BME280;68931;47.286;18.756;2023-03-31T03:33:28;100241.03;;;22.96;33.57
79463;BME280;68931;47.286;18.756;2023-03-31T03:33:59;100241.84;;;22.96;33.65
79463;BME280;68931;47.286;18.756;2023-03-31T03:34:30;100243.06;;;22.94;33.09
79463;BME280;68931;47.286;18.756;2023-03-31T03:35:01;100243.06;;;22.94;33.59
79463;BME280;68931;47.286;18.756;2023-03-31T03:35:33;100243.91;;;22.94;33.53
79463;BME280;68931;47.286;18.756;2023-03-31T03:36:04;100239.53;;;22.93;33.40
79463;BME280;68931;47.286;18.756;2023-03-31T03:36:36;100245.91;;;22.92;34.00
79463;BME280;68931;47.286;18.756;2023-03-31T03:37:07;100242.38;;;22.92;33.54
79463;BME280;68931;47.286;18.756;2023-03-31T03:37:37;100239.88;;;22.90;33.81
79463;BME280;68931;47.286;18.756;2023-03-31T03:38:08;100239.88;;;22.90;33.78
79463;BME280;68931;47.286;18.756;2023-03-31T03:38:39;100239.06;;;22.89;33.81
79463;BME280;68931;47.286;18.756;2023-03-31T03:39:10;100242.91;;;22.87;33.73
79463;BME280;68931;47.286;18.756;2023-03-31T03:39:41;100241.25;;;22.86;33.75
79463;BME280;68931;47.286;18.756;2023-03-31T03:40:11;100236.91;;;22.85;33.90
79463;BME280;68931;47.286;18.756;2023-03-31T03:40:42;100244.94;;;22.85;33.80
79463;BME280;68931;47.286;18.756;2023-03-31T03:41:13;100242.44;;;22.83;33.88
79463;BME280;68931;47.286;18.756;2023-03-31T03:41:44;100235.41;;;22.82;33.84
79463;BME280;68931;47.286;18.756;2023-03-31T03:42:16;100237.06;;;22.83;33.62
79463;BME280;68931;47.286;18.756;2023-03-31T03:42:46;100242.44;;;22.83;34.00
79463;BME280;68931;47.286;18.756;2023-03-31T03:43:17;100241.75;;;22.81;33.60
79463;BME280;68931;47.286;18.756;2023-03-31T03:43:48;100238.25;;;22.81;33.55
79463;BME280;68931;47.286;18.756;2023-03-31T03:44:18;100234.06;;;22.78;33.72
79463;BME280;68931;47.286;18.756;2023-03-31T03:44:49;100235.94;;;22.78;33.83
79463;BME280;68931;47.286;18.756;2023-03-31T03:45:20;100238.63;;;22.78;33.89
79463;BME280;68931;47.286;18.756;2023-03-31T03:45:50;100232.22;;;22.79;34.02